Tortuga — MBKB3 — position and weather

sailwx.info

Track history (hours):
 
Tides and Currents Weather Stations Pressure Air Temp Water Temp Dewpoint Dewpoint Depression Visibility Wind Speed Wind Dir Waves Ship Positions

Tortuga

Last reported at 2018-May-08 17:05 UTC. Time now 2018-May-21 11:16 UTC.
Position N 47°30' W 002°23'.
Warning: this ship's position is 12 days out of date.

Length 13 m.

Type: Pleasure craft. MMSI: 232009536.

Date/timePositionNaut miles runAvg speedWind from/ knotsBaromVisibWave heightAir tempDewpointWater temp
2018-May-08 17:05N 47°30' W 002°23'0 0.2
2018-May-08 16:40N 47°30' W 002°23'2 0.9
2018-May-08 14:10N 47°30' W 002°26'0 0.6
2018-May-08 13:57N 47°30' W 002°26'2 4.3
2018-May-08 13:29N 47°30' W 002°29'3 5.1
2018-May-08 13:00N 47°29' W 002°32'2 4.9
2018-May-08 12:30N 47°27' W 002°35'3 5.8
2018-May-08 12:00N 47°26' W 002°38'3 6.2
2018-May-08 11:30N 47°27' W 002°42'3 6.5
2018-May-08 10:59N 47°28' W 002°47'3 6.2
2018-May-08 10:30N 47°29' W 002°51'3 6.9
2018-May-08 10:00N 47°31' W 002°55'3 5.1
2018-May-08 09:30N 47°34' W 002°55'2 4.5
2018-May-08 09:01N 47°36' W 002°57'2 4.9
2018-May-08 08:31N 47°38' W 002°58'0 0.0
2018-May-07 12:37N 47°38' W 002°58'0 0.2
2018-May-07 12:30N 47°38' W 002°58'3 5.1
2018-May-07 12:00N 47°36' W 002°57'2 4.8
2018-May-07 11:30N 47°34' W 002°54'3 5.4
2018-May-07 10:59N 47°36' W 002°51'0 0.0
2018-May-07 10:07N 47°36' W 002°51'0 2.0
2018-May-07 10:00N 47°36' W 002°51'2 4.3
2018-May-07 09:30N 47°35' W 002°49'1 0.0
2018-May-05 15:57N 47°35' W 002°47'1 2.7
2018-May-05 15:30N 47°34' W 002°49'3 5.3
2018-May-05 15:00N 47°34' W 002°52'2 3.5
2018-May-05 14:30N 47°33' W 002°55'3 5.4
2018-May-05 14:00N 47°31' W 002°56'3 5.0
2018-May-05 13:30N 47°28' W 002°56'2 3.6
2018-May-05 13:00N 47°27' W 002°56'0 0.8
2018-May-05 12:28N 47°26' W 002°57'1 1.3
2018-May-05 11:57N 47°25' W 002°57'1 1.4
2018-May-05 11:30N 47°26' W 002°56'0 0.7
2018-May-05 11:00N 47°26' W 002°56'2 4.6
2018-May-05 10:29N 47°23' W 002°56'1 0.0
2018-May-03 16:12N 47°23' W 002°57'0 0.0
2018-May-03 16:00N 47°23' W 002°57'2 3.3
2018-May-03 15:30N 47°24' W 002°55'3 5.4
2018-May-03 14:59N 47°25' W 002°51'3 6.0
2018-May-03 14:30N 47°27' W 002°48'3 5.4
2018-May-03 14:00N 47°28' W 002°44'3 5.2
2018-May-03 13:30N 47°26' W 002°42'3 6.4
2018-May-03 12:59N 47°23' W 002°41'3 5.9
2018-May-03 12:30N 47°25' W 002°38'2 4.1
2018-May-03 11:58N 47°27' W 002°37'1 2.1
2018-May-03 11:29N 47°28' W 002°36'2 4.0
2018-May-03 11:00N 47°29' W 002°34'3 5.5
2018-May-03 10:29N 47°30' W 002°30'  
Track history (hours):
 
Tides and Currents Weather Stations Pressure Air Temp Water Temp Dewpoint Dewpoint Depression Visibility Wind Speed Wind Dir Waves Ship Positions

Tortuga

Last reported at 2018-May-08 17:05 UTC. Time now 2018-May-21 11:16 UTC.
Position N 47°30' W 002°23'.
Warning: this ship's position is 12 days out of date.

Length 13 m.

Type: Pleasure craft. MMSI: 232009536.

Date/timePositionNaut miles runAvg speedWind from/ knotsBaromVisibWave heightAir tempDewpointWater temp
2018-May-08 17:05N 47°30' W 002°23'0 0.2
2018-May-08 16:40N 47°30' W 002°23'2 0.9
2018-May-08 14:10N 47°30' W 002°26'0 0.6
2018-May-08 13:57N 47°30' W 002°26'2 4.3
2018-May-08 13:29N 47°30' W 002°29'3 5.1
2018-May-08 13:00N 47°29' W 002°32'2 4.9
2018-May-08 12:30N 47°27' W 002°35'3 5.8
2018-May-08 12:00N 47°26' W 002°38'3 6.2
2018-May-08 11:30N 47°27' W 002°42'3 6.5
2018-May-08 10:59N 47°28' W 002°47'3 6.2
2018-May-08 10:30N 47°29' W 002°51'3 6.9
2018-May-08 10:00N 47°31' W 002°55'3 5.1
2018-May-08 09:30N 47°34' W 002°55'2 4.5
2018-May-08 09:01N 47°36' W 002°57'2 4.9
2018-May-08 08:31N 47°38' W 002°58'0 0.0
2018-May-07 12:37N 47°38' W 002°58'0 0.2
2018-May-07 12:30N 47°38' W 002°58'3 5.1
2018-May-07 12:00N 47°36' W 002°57'2 4.8
2018-May-07 11:30N 47°34' W 002°54'3 5.4
2018-May-07 10:59N 47°36' W 002°51'0 0.0
2018-May-07 10:07N 47°36' W 002°51'0 2.0
2018-May-07 10:00N 47°36' W 002°51'2 4.3
2018-May-07 09:30N 47°35' W 002°49'1 0.0
2018-May-05 15:57N 47°35' W 002°47'1 2.7
2018-May-05 15:30N 47°34' W 002°49'3 5.3
2018-May-05 15:00N 47°34' W 002°52'2 3.5
2018-May-05 14:30N 47°33' W 002°55'3 5.4
2018-May-05 14:00N 47°31' W 002°56'3 5.0
2018-May-05 13:30N 47°28' W 002°56'2 3.6
2018-May-05 13:00N 47°27' W 002°56'0 0.8
2018-May-05 12:28N 47°26' W 002°57'1 1.3
2018-May-05 11:57N 47°25' W 002°57'1 1.4
2018-May-05 11:30N 47°26' W 002°56'0 0.7
2018-May-05 11:00N 47°26' W 002°56'2 4.6
2018-May-05 10:29N 47°23' W 002°56'1 0.0
2018-May-03 16:12N 47°23' W 002°57'0 0.0
2018-May-03 16:00N 47°23' W 002°57'2 3.3
2018-May-03 15:30N 47°24' W 002°55'3 5.4
2018-May-03 14:59N 47°25' W 002°51'3 6.0
2018-May-03 14:30N 47°27' W 002°48'3 5.4
2018-May-03 14:00N 47°28' W 002°44'3 5.2
2018-May-03 13:30N 47°26' W 002°42'3 6.4
2018-May-03 12:59N 47°23' W 002°41'3 5.9
2018-May-03 12:30N 47°25' W 002°38'2 4.1
2018-May-03 11:58N 47°27' W 002°37'1 2.1
2018-May-03 11:29N 47°28' W 002°36'2 4.0
2018-May-03 11:00N 47°29' W 002°34'3 5.5
2018-May-03 10:29N 47°30' W 002°30'  

Dump ship's entire track history